createdAt,value
2024-01-16T00:00:44.473Z,51.20
2024-01-16T00:01:44.502Z,51.40
2024-01-16T00:02:44.698Z,51.77
2024-01-16T00:03:44.584Z,52.03
2024-01-16T00:04:44.615Z,51.20
2024-01-16T00:55:43.976Z,52.29
2024-01-16T00:56:45.051Z,68.53
2024-01-16T00:57:44.961Z,97.21
2024-01-16T00:58:44.967Z,130.57
2024-01-16T00:59:45.045Z,165.19
2024-01-16T01:00:45.008Z,185.65
2024-01-16T01:01:44.982Z,167.63
2024-01-16T01:02:45.040Z,154.44
2024-01-16T01:03:45.006Z,141.72
2024-01-16T01:04:45.099Z,131.24
2024-01-16T01:05:45.129Z,124.24
2024-01-16T01:06:44.971Z,115.21
2024-01-16T01:07:44.982Z,110.05
2024-01-16T01:08:45.038Z,104.79
2024-01-16T01:09:44.994Z,97.58
2024-01-16T01:10:45.026Z,95.36
2024-01-16T01:11:45.144Z,90.71
2024-01-16T01:12:44.985Z,86.72
2024-01-16T01:13:45.017Z,84.00
2024-01-16T01:14:45.061Z,78.99
2024-01-16T01:15:44.999Z,79.58
2024-01-16T01:16:44.999Z,74.87
2024-01-16T01:17:45.045Z,74.12
2024-01-16T01:18:45.087Z,71.16
2024-01-16T01:19:45.003Z,68.33
2024-01-16T01:20:45.226Z,67.71
2024-01-16T01:21:45.020Z,67.13
2024-01-16T01:22:45.018Z,67.11
2024-01-16T01:23:45.225Z,64.93
2024-01-16T01:24:45.024Z,62.31
2024-01-16T01:25:45.024Z,60.66
2024-01-16T01:26:45.124Z,60.36
2024-01-16T01:27:45.048Z,59.53
2024-01-16T01:28:45.029Z,58.14
2024-01-16T01:29:45.124Z,58.80
2024-01-16T01:30:45.080Z,58.43
2024-01-16T01:31:45.037Z,54.81
2024-01-16T01:32:45.142Z,55.66
2024-01-16T01:33:45.124Z,54.21
2024-01-16T01:34:45.069Z,54.05
2024-01-16T01:35:45.097Z,53.30
2024-01-16T01:36:45.122Z,53.33
2024-01-16T01:37:45.146Z,55.11
2024-01-16T01:38:45.268Z,52.59
2024-01-16T01:39:45.203Z,52.47
2024-01-16T01:40:45.235Z,52.93
2024-01-16T01:41:45.280Z,51.64
2024-01-16T01:42:45.304Z,51.95
2024-01-16T01:43:45.360Z,50.67
2024-01-16T01:44:45.498Z,51.44
2024-01-16T01:45:45.400Z,50.68
2024-01-16T01:46:45.427Z,52.33
2024-01-16T01:47:45.623Z,51.78
2024-01-16T01:48:45.611Z,51.05
2024-01-16T01:49:45.564Z,51.47
2024-01-16T01:50:45.659Z,50.19
2024-01-16T01:51:45.610Z,50.40
2024-01-16T01:52:45.652Z,50.91
2024-01-16T01:53:45.792Z,52.42
2024-01-16T01:54:45.714Z,50.86
2024-01-16T01:55:45.756Z,50.55
2024-01-16T01:56:45.966Z,51.75
2024-01-16T01:57:45.841Z,51.12
2024-01-16T01:58:45.885Z,51.23
2024-01-16T01:59:45.990Z,50.67
2024-01-16T02:00:46.011Z,51.76
2024-01-16T02:01:46.000Z,52.22
2024-01-16T02:02:46.085Z,50.00
2024-01-16T02:03:46.117Z,51.87
2024-01-16T02:04:46.148Z,53.11
2024-01-16T02:05:46.213Z,52.32
2024-01-16T02:06:46.150Z,52.43
2024-01-16T02:07:46.187Z,50.64
2024-01-16T02:08:46.291Z,51.00
2024-01-16T02:09:46.260Z,51.05
2024-01-16T02:10:46.288Z,50.92
2024-01-16T02:11:46.368Z,51.93
2024-01-16T02:12:46.365Z,50.67
2024-01-16T02:13:46.387Z,51.14
2024-01-16T02:14:46.499Z,51.44
2024-01-16T02:15:46.472Z,52.51
2024-01-16T02:16:46.571Z,50.37
2024-01-16T02:17:46.597Z,51.94
2024-01-16T02:18:46.574Z,50.82
2024-01-16T02:19:46.585Z,51.98
2024-01-16T02:20:46.685Z,52.58
2024-01-16T02:21:50.323Z,52.27
2024-01-16T02:22:46.642Z,52.38
2024-01-16T02:23:46.735Z,52.37
2024-01-16T02:24:46.657Z,52.45
2024-01-16T02:25:46.657Z,51.53
2024-01-16T02:26:46.780Z,51.63
2024-01-16T02:27:46.683Z,52.84
2024-01-16T02:28:46.710Z,51.83
2024-01-16T02:29:46.813Z,50.41
2024-01-16T02:30:46.822Z,50.90
2024-01-16T02:31:46.854Z,52.03
2024-01-16T02:32:46.946Z,50.75
2024-01-16T02:33:46.951Z,51.51
2024-01-16T02:34:46.908Z,50.86
2024-01-16T02:35:47.015Z,50.63
2024-01-16T02:36:46.980Z,50.66
2024-01-16T02:37:47.017Z,50.92
2024-01-16T02:38:47.243Z,50.46
2024-01-16T02:39:47.085Z,51.36
2024-01-16T02:40:47.120Z,51.04
2024-01-16T02:41:47.197Z,52.14
2024-01-16T02:42:47.197Z,51.89
2024-01-16T02:43:47.231Z,51.22
2024-01-16T02:44:47.331Z,52.40
2024-01-16T02:45:47.319Z,51.50
2024-01-16T02:46:47.358Z,52.03
2024-01-16T02:47:47.469Z,50.93
2024-01-16T02:48:47.591Z,51.70
2024-01-16T02:49:47.476Z,51.21
2024-01-16T02:50:47.583Z,51.25
2024-01-16T02:51:47.552Z,51.70
2024-01-16T02:52:47.581Z,50.71
2024-01-16T02:53:47.675Z,51.92
2024-01-16T02:54:47.663Z,52.65
2024-01-16T02:55:47.711Z,50.89
2024-01-16T02:56:47.862Z,51.77
2024-01-16T02:57:47.799Z,52.36
2024-01-16T02:58:47.825Z,51.39
2024-01-16T02:59:48.079Z,51.00
2024-01-16T03:00:47.951Z,50.97
2024-01-16T03:01:47.935Z,50.77
2024-01-16T03:02:48.133Z,52.03
2024-01-16T03:03:48.073Z,51.79
2024-01-16T03:04:48.056Z,51.40
2024-01-16T03:05:48.157Z,51.83
2024-01-16T03:06:48.286Z,51.73
2024-01-16T03:07:48.198Z,51.17
2024-01-16T03:08:48.307Z,51.15
2024-01-16T03:09:48.256Z,51.70
2024-01-16T03:10:48.298Z,52.54
2024-01-16T03:11:48.426Z,52.01
2024-01-16T03:12:48.378Z,51.37
2024-01-16T03:13:48.427Z,50.45
2024-01-16T03:14:48.486Z,51.47
2024-01-16T03:15:48.490Z,50.50
2024-01-16T03:16:48.531Z,50.96
2024-01-16T03:17:48.773Z,51.22
2024-01-16T03:18:48.799Z,52.14
2024-01-16T03:19:48.672Z,52.85
2024-01-16T03:20:48.755Z,51.59
2024-01-16T03:21:48.710Z,50.00
2024-01-16T03:22:48.759Z,53.04
2024-01-16T03:23:49.005Z,52.23
2024-01-16T03:24:48.841Z,50.07
2024-01-16T03:25:48.891Z,52.56
2024-01-16T03:26:48.963Z,52.25
2024-01-16T03:27:48.955Z,52.99
2024-01-16T03:28:48.997Z,53.10
2024-01-16T03:29:49.045Z,52.14
2024-01-16T03:30:49.139Z,52.53
2024-01-16T03:31:49.221Z,52.54
2024-01-16T03:32:49.221Z,52.71
2024-01-16T03:33:49.259Z,53.08
2024-01-16T03:34:49.250Z,51.48
2024-01-16T03:35:49.432Z,51.63
2024-01-16T03:36:49.292Z,52.95
2024-01-16T03:37:49.352Z,51.24
2024-01-16T03:38:49.406Z,51.83
2024-01-16T03:39:49.419Z,52.15
2024-01-16T03:40:49.486Z,52.86
2024-01-16T03:41:49.607Z,51.37
2024-01-16T03:42:49.563Z,52.86
2024-01-16T03:43:49.576Z,52.64
2024-01-16T03:44:49.687Z,51.98
2024-01-16T03:45:49.660Z,53.75
2024-01-16T03:46:49.697Z,52.91
2024-01-16T03:47:49.816Z,51.67
2024-01-16T03:48:49.903Z,51.57
2024-01-16T03:49:49.843Z,52.22
2024-01-16T03:50:49.906Z,51.57
2024-01-16T03:51:49.944Z,53.10
2024-01-16T03:52:49.949Z,52.59
2024-01-16T03:53:50.010Z,50.86
2024-01-16T03:54:50.062Z,51.16
2024-01-16T03:55:50.069Z,52.92
2024-01-16T03:56:50.191Z,51.54
2024-01-16T03:57:50.142Z,52.54
2024-01-16T03:58:50.181Z,51.72
2024-01-16T03:59:50.281Z,52.83
2024-01-16T04:00:50.274Z,51.99
2024-01-16T04:01:50.296Z,52.09
2024-01-16T04:02:50.402Z,52.08
2024-01-16T04:03:50.400Z,51.30
2024-01-16T04:04:50.465Z,52.43
2024-01-16T04:05:50.545Z,51.71
2024-01-16T04:06:50.502Z,52.04
2024-01-16T04:07:50.606Z,51.21
2024-01-16T04:08:50.634Z,52.20
2024-01-16T04:09:50.645Z,52.18
2024-01-16T04:10:50.683Z,52.28
2024-01-16T04:11:50.788Z,50.27
2024-01-16T04:12:50.771Z,52.76
2024-01-16T04:13:51.040Z,51.79
2024-01-16T04:14:50.978Z,51.54
2024-01-16T04:15:50.903Z,52.33
2024-01-16T04:16:50.933Z,53.30
2024-01-16T04:17:51.038Z,50.95
2024-01-16T04:18:51.171Z,51.37
2024-01-16T04:19:51.070Z,52.20
2024-01-16T04:20:51.186Z,51.02
2024-01-16T04:21:51.124Z,51.91
2024-01-16T04:22:51.944Z,51.67
2024-01-16T04:23:51.250Z,52.96
2024-01-16T04:24:51.254Z,52.10
2024-01-16T04:25:51.275Z,52.53
2024-01-16T04:26:51.372Z,52.74
2024-01-16T04:27:51.360Z,51.81
2024-01-16T04:28:51.398Z,51.75
2024-01-16T04:29:51.488Z,52.36
2024-01-16T04:30:51.505Z,53.65
2024-01-16T04:31:51.514Z,50.43
2024-01-16T04:32:51.674Z,52.01
2024-01-16T04:33:51.916Z,52.66
2024-01-16T04:34:51.632Z,52.92
2024-01-16T04:35:51.748Z,50.59
2024-01-16T04:36:51.710Z,51.65
2024-01-16T04:37:51.744Z,51.67
2024-01-16T04:38:51.833Z,52.26
2024-01-16T04:39:51.875Z,52.84
2024-01-16T04:40:51.890Z,51.83
2024-01-16T04:41:51.951Z,51.07
2024-01-16T04:42:51.979Z,51.32
2024-01-16T04:43:52.027Z,52.17
2024-01-16T04:44:52.141Z,51.71
2024-01-16T04:45:52.113Z,52.22
2024-01-16T04:46:52.171Z,50.89
2024-01-16T04:47:52.286Z,50.83
2024-01-16T04:48:52.357Z,51.53
2024-01-16T04:49:59.605Z,50.00
2024-01-16T04:51:00.656Z,50.00
2024-01-16T04:52:00.618Z,50.00
2024-01-16T04:53:00.633Z,50.00
2024-01-16T04:54:00.628Z,50.00
2024-01-16T04:55:00.652Z,50.75
2024-01-16T04:56:00.630Z,53.20
2024-01-16T04:57:00.611Z,52.73
2024-01-16T04:58:00.611Z,50.00
2024-01-16T04:59:00.618Z,52.77
2024-01-16T05:00:00.711Z,51.24
2024-01-16T05:01:01.257Z,50.49
2024-01-16T05:02:00.623Z,51.95
2024-01-16T05:03:00.720Z,50.34
2024-01-16T05:04:00.683Z,52.68
2024-01-16T05:05:00.674Z,54.03
2024-01-16T05:06:00.835Z,53.20
2024-01-16T05:07:00.663Z,51.92
2024-01-16T05:08:00.700Z,54.58
2024-01-16T05:09:00.741Z,54.68
2024-01-16T05:10:00.670Z,53.12
2024-01-16T05:11:00.651Z,52.89
2024-01-16T05:12:00.620Z,53.55
2024-01-16T05:13:00.619Z,53.89
2024-01-16T05:14:00.626Z,54.35
2024-01-16T05:15:00.649Z,54.19
2024-01-16T05:16:00.634Z,51.52
2024-01-16T05:17:00.642Z,52.72
2024-01-16T05:18:00.817Z,52.56
2024-01-16T05:19:00.762Z,52.21
2024-01-16T05:20:00.714Z,50.82
2024-01-16T05:21:01.034Z,53.18
2024-01-16T05:22:00.756Z,50.33
2024-01-16T05:23:00.829Z,52.46
2024-01-16T05:24:01.840Z,52.09
2024-01-16T05:25:00.938Z,54.53
2024-01-16T05:26:00.955Z,53.94
2024-01-16T05:27:01.052Z,51.61
2024-01-16T05:28:01.060Z,52.75
2024-01-16T05:29:01.118Z,53.88
2024-01-16T05:30:01.237Z,55.14
2024-01-16T05:31:01.284Z,52.36
2024-01-16T05:32:01.270Z,53.04
2024-01-16T05:33:01.397Z,51.55
2024-01-16T05:34:01.529Z,54.43
2024-01-16T05:35:01.401Z,52.78
2024-01-16T05:36:01.602Z,51.99
2024-01-16T05:37:01.496Z,52.81
2024-01-16T05:38:01.753Z,53.11
2024-01-16T05:39:01.588Z,51.66
2024-01-16T05:40:01.654Z,51.83
2024-01-16T05:41:01.685Z,54.99
2024-01-16T05:42:01.790Z,52.00
2024-01-16T05:43:01.816Z,52.89
2024-01-16T05:44:01.862Z,52.14
2024-01-16T05:45:01.884Z,53.37
2024-01-16T05:46:02.018Z,52.96
2024-01-16T05:47:01.991Z,54.71
2024-01-16T05:48:02.395Z,52.67
2024-01-16T05:49:02.387Z,53.98
2024-01-16T05:50:02.231Z,50.57
2024-01-16T05:51:02.576Z,51.81
2024-01-16T05:52:02.221Z,50.41
2024-01-16T05:53:02.269Z,54.24
2024-01-16T05:54:02.320Z,53.48
2024-01-16T05:55:02.367Z,53.29
2024-01-16T05:56:02.413Z,54.22
2024-01-16T05:57:02.487Z,52.12
2024-01-16T05:58:02.494Z,53.24
2024-01-16T05:59:02.581Z,54.25
2024-01-16T06:00:02.624Z,51.57
2024-01-16T06:01:02.686Z,54.38
2024-01-16T06:02:02.726Z,53.32
2024-01-16T06:03:02.750Z,53.06
2024-01-16T06:04:02.803Z,55.24
2024-01-16T06:05:02.841Z,54.33
2024-01-16T06:06:03.015Z,51.85
2024-01-16T06:07:02.972Z,54.84
2024-01-16T06:08:02.973Z,53.48
2024-01-16T06:09:03.029Z,51.27
2024-01-16T06:10:04.620Z,53.75
2024-01-16T06:11:03.064Z,55.54
2024-01-16T06:12:03.084Z,55.06
2024-01-16T06:13:03.063Z,54.96
2024-01-16T06:14:03.068Z,52.55
2024-01-16T06:15:03.170Z,52.79
2024-01-16T06:16:03.071Z,53.37
2024-01-16T06:17:03.076Z,55.18
2024-01-16T06:18:03.273Z,51.65
2024-01-16T06:19:03.175Z,55.23
2024-01-16T06:20:03.297Z,53.89
2024-01-16T06:21:03.134Z,54.51
2024-01-16T06:22:03.069Z,53.10
2024-01-16T06:23:03.090Z,53.23
2024-01-16T06:24:03.251Z,52.97
2024-01-16T06:25:03.075Z,50.08
2024-01-16T06:26:03.086Z,50.83
2024-01-16T06:27:03.094Z,53.71
2024-01-16T06:28:04.362Z,51.64
2024-01-16T06:29:03.098Z,50.98
2024-01-16T06:30:03.193Z,50.00
2024-01-16T06:31:03.161Z,51.90
2024-01-16T06:32:03.207Z,53.37
2024-01-16T06:33:03.312Z,51.70
2024-01-16T06:34:03.323Z,52.38
2024-01-16T06:35:03.273Z,50.77
2024-01-16T06:36:03.342Z,54.92
2024-01-16T06:37:03.791Z,52.82
2024-01-16T06:38:03.395Z,57.80
2024-01-16T06:39:03.427Z,55.57
2024-01-16T06:40:03.457Z,57.12
2024-01-16T06:41:03.795Z,56.00
2024-01-16T06:42:04.073Z,58.19
2024-01-16T06:43:03.561Z,55.06
2024-01-16T06:44:03.672Z,57.11
2024-01-16T06:45:03.622Z,55.63
2024-01-16T06:46:03.655Z,55.06
2024-01-16T06:47:03.900Z,55.52
2024-01-16T06:48:03.921Z,53.14
2024-01-16T06:49:03.784Z,57.18
2024-01-16T06:50:03.792Z,57.27
2024-01-16T06:51:03.769Z,59.01
2024-01-16T06:52:04.268Z,62.32
2024-01-16T06:53:03.800Z,60.26
2024-01-16T06:54:04.333Z,64.84
2024-01-16T06:55:03.838Z,67.21
2024-01-16T06:56:03.925Z,70.81
2024-01-16T06:57:07.472Z,75.26
2024-01-16T06:58:03.899Z,75.33
2024-01-16T06:59:04.279Z,76.22
2024-01-16T07:00:04.038Z,78.32
2024-01-16T07:01:03.934Z,84.05
2024-01-16T07:02:04.277Z,87.27
2024-01-16T07:03:03.911Z,93.84
2024-01-16T07:04:04.344Z,94.93
2024-01-16T07:05:03.932Z,102.95
2024-01-16T07:06:04.223Z,115.79
2024-01-16T07:07:03.915Z,123.69
2024-01-16T07:08:03.903Z,127.41
2024-01-16T07:09:04.281Z,124.71
2024-01-16T07:10:03.895Z,121.19
2024-01-16T07:11:03.887Z,112.02
2024-01-16T07:12:03.906Z,103.56
2024-01-16T07:13:07.079Z,101.21
2024-01-16T07:14:04.287Z,101.24
2024-01-16T07:15:03.914Z,101.51
2024-01-16T07:16:03.882Z,102.18
2024-01-16T07:17:03.969Z,104.67
2024-01-16T07:18:04.019Z,109.53
2024-01-16T07:19:04.420Z,111.77
2024-01-16T07:20:03.924Z,116.58
2024-01-16T07:21:03.951Z,118.56
2024-01-16T07:22:04.293Z,124.09
2024-01-16T07:23:03.918Z,127.73
2024-01-16T07:24:03.876Z,132.25
2024-01-16T07:25:04.274Z,137.18
2024-01-16T07:26:05.519Z,140.48
2024-01-16T07:27:03.913Z,146.21
2024-01-16T07:28:04.018Z,149.54
2024-01-16T07:29:03.897Z,152.50
2024-01-16T07:30:04.335Z,155.35
2024-01-16T07:31:03.961Z,159.23
2024-01-16T07:32:03.895Z,164.59
2024-01-16T07:33:04.413Z,167.29
2024-01-16T07:34:04.555Z,172.02
2024-01-16T07:35:04.304Z,279.36
2024-01-16T07:36:03.921Z,265.19
2024-01-16T07:37:07.141Z,231.32
2024-01-16T07:38:05.624Z,222.41
2024-01-16T07:39:04.433Z,213.55
2024-01-16T07:40:04.268Z,207.62
2024-01-16T07:41:03.939Z,202.74
2024-01-16T07:42:04.580Z,197.83
2024-01-16T07:43:03.923Z,195.34
2024-01-16T07:44:04.305Z,194.68
2024-01-16T07:45:04.942Z,196.42
2024-01-16T07:46:03.942Z,196.94
2024-01-16T07:47:03.952Z,195.23
2024-01-16T07:48:04.054Z,198.95
2024-01-16T07:49:05.203Z,200.00
2024-01-16T07:50:08.793Z,199.74
2024-01-16T07:51:04.425Z,199.88
2024-01-16T07:52:04.518Z,199.99
2024-01-16T07:53:04.258Z,200.89
2024-01-16T07:54:05.023Z,202.11
2024-01-16T07:55:04.670Z,204.84
2024-01-16T07:56:04.505Z,208.18
2024-01-16T07:57:04.284Z,199.61
2024-01-16T07:58:04.299Z,198.55
2024-01-16T07:59:03.941Z,198.59
2024-01-16T08:00:05.218Z,200.00
2024-01-16T08:01:04.402Z,199.16
2024-01-16T08:02:04.289Z,199.06
2024-01-16T08:03:04.821Z,197.55
2024-01-16T08:04:04.122Z,199.76
2024-01-16T08:05:03.937Z,200.00
2024-01-16T08:06:05.509Z,199.99
2024-01-16T08:07:04.323Z,198.65
2024-01-16T08:08:04.820Z,198.70
2024-01-16T08:09:04.884Z,199.07
2024-01-16T08:10:04.650Z,199.06
2024-01-16T08:11:04.544Z,199.89
2024-01-16T08:12:04.501Z,198.37
2024-01-16T08:13:04.542Z,195.64
2024-01-16T08:14:04.412Z,194.86
2024-01-16T08:15:04.260Z,194.98
2024-01-16T08:16:04.160Z,194.61
2024-01-16T08:17:04.137Z,196.50
2024-01-16T08:18:04.538Z,196.94
2024-01-16T08:19:04.764Z,197.30
2024-01-16T08:20:04.072Z,197.62
2024-01-16T08:21:04.160Z,198.77
2024-01-16T08:22:06.682Z,198.77
2024-01-16T08:23:04.031Z,198.88
2024-01-16T08:24:05.152Z,199.60
2024-01-16T08:25:04.454Z,200.38
2024-01-16T08:26:04.365Z,201.39
2024-01-16T08:27:04.150Z,205.29
2024-01-16T08:28:04.026Z,199.57
2024-01-16T08:29:04.056Z,198.78
2024-01-16T08:30:04.843Z,198.90
2024-01-16T08:31:04.447Z,199.97
2024-01-16T08:32:04.102Z,199.78
2024-01-16T08:33:04.211Z,199.42
2024-01-16T08:34:05.445Z,198.84
2024-01-16T08:35:04.542Z,197.98
2024-01-16T08:36:04.231Z,199.23
2024-01-16T08:37:11.653Z,199.53
2024-01-16T08:38:04.370Z,199.56
2024-01-16T08:39:04.237Z,199.75
2024-01-16T08:40:04.210Z,199.74
2024-01-16T08:41:04.392Z,197.63
2024-01-16T08:42:04.257Z,196.63
2024-01-16T08:43:07.440Z,194.18
2024-01-16T08:44:04.262Z,194.25
2024-01-16T08:45:04.207Z,194.30
2024-01-16T08:46:04.457Z,195.20
2024-01-16T08:47:11.674Z,195.49
2024-01-16T08:48:05.823Z,194.32
2024-01-16T08:49:08.546Z,194.35
2024-01-16T08:50:04.284Z,194.45
2024-01-16T08:51:04.488Z,195.20
2024-01-16T08:52:04.241Z,195.75
2024-01-16T08:53:04.479Z,199.25
2024-01-16T08:54:04.332Z,213.52
2024-01-16T08:55:04.434Z,202.80
2024-01-16T08:56:04.285Z,192.24
2024-01-16T08:57:04.253Z,177.02
2024-01-16T08:58:04.404Z,161.53
2024-01-16T08:59:04.291Z,149.94
2024-01-16T09:00:04.436Z,139.95
2024-01-16T09:01:04.256Z,133.13
2024-01-16T09:02:04.383Z,127.00
2024-01-16T09:03:05.350Z,123.27
2024-01-16T09:04:04.305Z,119.88
2024-01-16T09:05:04.497Z,119.53
2024-01-16T09:06:04.736Z,117.54
2024-01-16T09:07:04.575Z,116.83
2024-01-16T09:08:04.356Z,116.74
2024-01-16T09:09:04.426Z,116.39
2024-01-16T09:10:04.431Z,117.24
2024-01-16T09:11:07.626Z,115.12
2024-01-16T09:12:04.405Z,115.20
2024-01-16T09:13:04.511Z,115.40
2024-01-16T09:14:06.010Z,116.00
2024-01-16T09:15:04.842Z,118.30
2024-01-16T09:16:04.623Z,115.29
2024-01-16T09:17:04.325Z,115.87
2024-01-16T09:18:05.910Z,117.28
2024-01-16T09:19:04.791Z,119.91
2024-01-16T09:20:05.332Z,121.97
2024-01-16T09:21:04.747Z,122.42
2024-01-16T09:22:05.363Z,123.06
2024-01-16T09:23:04.984Z,125.15
2024-01-16T09:24:05.008Z,124.21
2024-01-16T09:25:05.929Z,124.28
2024-01-16T09:26:05.114Z,128.76
2024-01-16T09:27:05.140Z,134.02
2024-01-16T09:28:05.151Z,136.11
2024-01-16T09:29:05.192Z,134.57
2024-01-16T09:30:06.282Z,130.11
2024-01-16T09:31:05.780Z,126.71
2024-01-16T09:32:05.951Z,120.82
2024-01-16T09:33:05.555Z,117.32
2024-01-16T09:34:08.236Z,112.81
2024-01-16T09:35:05.449Z,110.81
2024-01-16T09:36:05.409Z,104.67
2024-01-16T09:37:05.378Z,98.82
2024-01-16T09:38:05.502Z,94.17
2024-01-16T09:39:05.486Z,89.42
2024-01-16T09:40:09.127Z,84.89
2024-01-16T09:41:08.636Z,83.99
2024-01-16T09:42:05.439Z,84.95
2024-01-16T09:43:06.437Z,84.96
2024-01-16T09:44:05.445Z,85.38
2024-01-16T09:45:05.939Z,86.63
2024-01-16T09:46:05.467Z,88.31
2024-01-16T09:47:05.445Z,87.81
2024-01-16T09:48:05.660Z,88.84
2024-01-16T09:49:05.567Z,89.34
2024-01-16T09:50:05.860Z,90.56
2024-01-16T09:51:05.500Z,91.49
2024-01-16T09:52:05.454Z,96.53
2024-01-16T09:53:05.844Z,124.04
2024-01-16T09:54:05.451Z,138.04
2024-01-16T09:55:05.450Z,147.00
2024-01-16T09:56:05.865Z,135.25
2024-01-16T09:57:05.481Z,112.64
2024-01-16T09:58:05.449Z,96.42
2024-01-16T09:59:05.492Z,82.02
2024-01-16T10:00:05.885Z,72.83
2024-01-16T10:01:05.536Z,66.68
2024-01-16T10:02:05.497Z,59.86
2024-01-16T10:03:05.726Z,56.38
2024-01-16T10:04:05.621Z,53.88
2024-01-16T10:05:05.839Z,53.64
2024-01-16T10:06:05.756Z,53.41
2024-01-16T10:07:05.845Z,52.22
2024-01-16T10:08:05.881Z,51.32
2024-01-16T10:09:05.718Z,53.30
2024-01-16T10:10:05.869Z,53.18
2024-01-16T10:11:07.347Z,54.40
2024-01-16T10:12:05.939Z,55.49
2024-01-16T10:13:05.959Z,55.61
2024-01-16T10:14:06.601Z,56.91
2024-01-16T10:15:05.959Z,57.86
2024-01-16T10:16:06.375Z,59.68
2024-01-16T10:17:06.044Z,64.92
2024-01-16T10:18:06.281Z,70.70
2024-01-16T10:19:06.289Z,74.34
2024-01-16T10:20:06.427Z,76.40
2024-01-16T10:21:06.353Z,77.80
2024-01-16T10:22:06.350Z,80.10
2024-01-16T10:23:06.345Z,80.86
2024-01-16T10:24:06.370Z,83.41
2024-01-16T10:25:06.509Z,83.22
2024-01-16T10:26:06.439Z,84.23
2024-01-16T10:27:06.968Z,86.24
2024-01-16T10:28:06.505Z,87.58
2024-01-16T10:29:06.487Z,87.95
2024-01-16T10:30:07.062Z,89.82
2024-01-16T10:31:06.784Z,90.88
2024-01-16T10:32:07.092Z,89.21
2024-01-16T10:33:07.685Z,88.79
2024-01-16T10:34:06.751Z,89.84
2024-01-16T10:35:06.829Z,86.91
2024-01-16T10:36:06.711Z,88.07
2024-01-16T10:37:06.882Z,87.74
2024-01-16T10:38:06.951Z,88.40
2024-01-16T10:39:06.710Z,87.71
2024-01-16T10:40:07.786Z,89.84
2024-01-16T10:41:07.334Z,93.76
2024-01-16T10:42:06.861Z,96.16
2024-01-16T10:43:06.984Z,96.82
2024-01-16T10:44:07.021Z,96.84
2024-01-16T10:45:07.069Z,97.20
2024-01-16T10:46:07.435Z,99.27
2024-01-16T10:47:07.212Z,101.04
2024-01-16T10:48:08.013Z,108.16
2024-01-16T10:49:07.335Z,119.97
2024-01-16T10:50:07.390Z,123.18
2024-01-16T10:51:07.440Z,123.41
2024-01-16T10:52:07.480Z,125.30
2024-01-16T10:53:07.706Z,126.43
2024-01-16T10:54:07.818Z,128.13
2024-01-16T10:55:07.870Z,129.29
2024-01-16T10:56:07.666Z,128.84
2024-01-16T10:57:07.681Z,131.37
2024-01-16T10:58:08.516Z,132.48
2024-01-16T10:59:08.471Z,135.94
2024-01-16T11:00:08.224Z,136.04
2024-01-16T11:01:08.046Z,136.57
2024-01-16T11:02:08.117Z,144.75
2024-01-16T11:03:07.734Z,153.88
2024-01-16T11:04:07.918Z,166.40
2024-01-16T11:05:07.759Z,168.55
2024-01-16T11:06:07.790Z,168.91
2024-01-16T11:07:07.736Z,171.15
2024-01-16T11:08:07.737Z,171.90
2024-01-16T11:09:07.746Z,175.31
2024-01-16T11:10:07.892Z,175.53
2024-01-16T11:11:07.739Z,175.63
2024-01-16T11:12:07.734Z,178.10
2024-01-16T11:13:07.721Z,177.34
2024-01-16T11:14:07.731Z,180.95
2024-01-16T11:15:08.896Z,182.18
2024-01-16T11:16:07.793Z,185.03
2024-01-16T11:17:07.738Z,184.54
2024-01-16T11:18:08.096Z,189.62
2024-01-16T11:19:24.894Z,191.68
2024-01-16T11:20:21.939Z,191.78
2024-01-16T11:21:09.981Z,192.02
2024-01-16T11:22:07.989Z,192.16
2024-01-16T11:23:07.752Z,192.86
2024-01-16T11:24:07.744Z,194.66
2024-01-16T11:25:07.881Z,195.62
2024-01-16T11:26:07.768Z,196.60
2024-01-16T11:27:07.894Z,193.77
2024-01-16T11:28:07.804Z,189.92
2024-01-16T11:29:07.834Z,190.64
2024-01-16T11:30:08.016Z,197.76
2024-01-16T11:31:07.912Z,199.21
2024-01-16T11:32:18.682Z,198.42
2024-01-16T11:33:08.007Z,198.48
2024-01-16T11:34:07.997Z,198.61
2024-01-16T11:35:08.030Z,198.80
2024-01-16T11:36:07.913Z,197.89
2024-01-16T11:37:07.887Z,196.83
2024-01-16T11:38:07.900Z,197.10
2024-01-16T11:39:07.901Z,198.71
2024-01-16T11:40:07.953Z,199.83
2024-01-16T11:41:07.873Z,198.12
2024-01-16T11:42:07.935Z,199.29
2024-01-16T11:43:07.895Z,200.00
2024-01-16T11:44:07.885Z,199.89
2024-01-16T11:45:08.448Z,200.00
2024-01-16T11:46:07.881Z,198.48
2024-01-16T11:47:07.896Z,199.88
2024-01-16T11:48:08.055Z,200.17
2024-01-16T11:49:08.079Z,200.00
2024-01-16T11:50:08.383Z,199.13
2024-01-16T11:51:08.428Z,200.00
2024-01-16T11:52:08.201Z,199.77
2024-01-16T11:53:08.254Z,199.92
2024-01-16T11:54:09.177Z,199.97
2024-01-16T11:55:08.357Z,200.00
2024-01-16T11:56:08.884Z,200.00
2024-01-16T11:57:08.524Z,199.64
2024-01-16T11:58:08.532Z,200.00
2024-01-16T11:59:08.572Z,199.11
2024-01-16T12:00:08.642Z,200.00
2024-01-16T12:01:08.774Z,200.00
2024-01-16T12:02:08.716Z,200.00
2024-01-16T12:03:09.608Z,199.51
2024-01-16T12:04:08.788Z,200.00
2024-01-16T12:05:08.854Z,199.41
2024-01-16T12:06:08.949Z,200.00
2024-01-16T12:07:08.846Z,200.00
2024-01-16T12:08:08.902Z,199.77
2024-01-16T12:09:08.818Z,199.22
2024-01-16T12:10:08.764Z,199.49
2024-01-16T12:11:08.908Z,199.86
2024-01-16T12:12:08.788Z,199.66
2024-01-16T12:13:08.893Z,199.55
2024-01-16T12:14:08.766Z,199.61
2024-01-16T12:15:08.767Z,199.09
2024-01-16T12:16:08.784Z,198.45
2024-01-16T12:17:08.900Z,198.88
2024-01-16T12:19:07.913Z,183.16
2024-01-16T12:20:08.972Z,179.38
2024-01-16T12:21:08.812Z,169.57
2024-01-16T12:22:08.790Z,159.79
2024-01-16T12:23:08.783Z,151.24
2024-01-16T12:24:11.305Z,145.30
2024-01-16T12:25:09.398Z,141.43
2024-01-16T12:26:09.066Z,137.65
2024-01-16T12:27:09.121Z,136.05
2024-01-16T12:28:10.538Z,134.84
2024-01-16T12:29:09.235Z,128.66
2024-01-16T12:30:09.451Z,132.72
2024-01-16T12:31:09.312Z,135.82
2024-01-16T12:32:09.369Z,138.86
2024-01-16T12:33:11.491Z,127.94
2024-01-16T12:34:10.130Z,116.77
2024-01-16T12:35:09.468Z,105.21
2024-01-16T12:36:09.484Z,92.51
2024-01-16T12:37:09.396Z,79.80
2024-01-16T12:38:09.918Z,69.80
2024-01-16T12:39:09.432Z,61.79
2024-01-16T12:40:09.544Z,57.54
2024-01-16T12:41:09.441Z,52.60
2024-01-16T12:42:09.527Z,50.00
2024-01-16T12:43:09.513Z,50.00
2024-01-16T12:44:15.478Z,50.31
2024-01-16T12:45:09.943Z,50.38
2024-01-16T12:46:09.528Z,50.72
2024-01-16T12:47:09.544Z,51.12
2024-01-16T12:48:09.801Z,51.08
2024-01-16T12:49:09.643Z,51.13
2024-01-16T12:50:10.023Z,51.36
2024-01-16T12:51:09.707Z,51.10
2024-01-16T12:52:09.564Z,51.91
2024-01-16T12:53:09.532Z,51.90
2024-01-16T12:54:09.621Z,52.18
2024-01-16T12:55:09.924Z,51.80
2024-01-16T12:56:09.543Z,51.45
2024-01-16T12:57:09.610Z,52.49
2024-01-16T12:58:09.538Z,52.37
2024-01-16T12:59:09.541Z,52.45
2024-01-16T13:00:09.949Z,53.64
2024-01-16T13:01:09.576Z,53.80
2024-01-16T13:02:09.545Z,54.37
2024-01-16T13:03:10.001Z,55.44
2024-01-16T13:04:09.912Z,55.79
2024-01-16T13:05:10.000Z,55.21
2024-01-16T13:06:09.708Z,55.45
2024-01-16T13:07:09.814Z,56.03
2024-01-16T13:08:09.952Z,56.50
2024-01-16T13:09:09.921Z,55.99
2024-01-16T13:10:10.324Z,57.17
2024-01-16T13:11:09.568Z,57.68
2024-01-16T13:12:09.607Z,57.56
2024-01-16T13:13:09.645Z,58.25
2024-01-16T13:14:09.675Z,58.53
2024-01-16T13:15:09.939Z,57.94
2024-01-16T13:16:09.731Z,58.82
2024-01-16T13:17:09.748Z,58.77
2024-01-16T13:18:09.890Z,58.67
2024-01-16T13:19:09.957Z,59.53
2024-01-16T13:20:09.938Z,58.69
2024-01-16T13:21:09.852Z,61.42
2024-01-16T13:22:09.875Z,62.15
2024-01-16T13:23:09.910Z,62.54
2024-01-16T13:24:10.037Z,63.96
2024-01-16T13:25:10.419Z,64.54
2024-01-16T13:26:09.980Z,64.89
2024-01-16T13:27:09.970Z,66.17
2024-01-16T13:28:09.996Z,67.02
2024-01-16T13:29:10.013Z,66.94
2024-01-16T13:30:10.576Z,68.37
2024-01-16T13:31:10.105Z,67.47
2024-01-16T13:32:10.918Z,68.17
2024-01-16T13:33:10.244Z,68.22
2024-01-16T13:34:10.326Z,69.68
2024-01-16T13:35:10.734Z,70.23